sensor_id;sensor_type;location;lat;lon;timestamp;pressure;altitude;pressure_sealevel;temperature;humidity
45040;BME280;30778;53.574;7.770;2022-07-23T00:00:56;101838.19;;;13.50;51.44
45040;BME280;30778;53.574;7.770;2022-07-23T00:03:21;101843.31;;;13.53;51.35
45040;BME280;30778;53.574;7.770;2022-07-23T00:05:47;101848.97;;;13.68;51.25
45040;BME280;30778;53.574;7.770;2022-07-23T00:08:12;101847.19;;;13.68;51.05
45040;BME280;30778;53.574;7.770;2022-07-23T00:10:38;101848.03;;;13.69;50.49
45040;BME280;30778;53.574;7.770;2022-07-23T00:13:04;101857.47;;;13.75;51.04
45040;BME280;30778;53.574;7.770;2022-07-23T00:15:31;101852.22;;;13.75;50.55
45040;BME280;30778;53.574;7.770;2022-07-23T00:17:57;101848.03;;;13.69;50.61
45040;BME280;30778;53.574;7.770;2022-07-23T00:20:22;101854.78;;;13.76;50.43
45040;BME280;30778;53.574;7.770;2022-07-23T00:22:49;101843.75;;;13.90;50.36
45040;BME280;30778;53.574;7.770;2022-07-23T00:25:15;101837.63;;;13.89;50.29
45040;BME280;30778;53.574;7.770;2022-07-23T00:27:41;101836.50;;;13.97;50.35
45040;BME280;30778;53.574;7.770;2022-07-23T00:30:07;101842.06;;;13.87;50.08
45040;BME280;30778;53.574;7.770;2022-07-23T00:35:12;101839.88;;;13.77;50.11
45040;BME280;30778;53.574;7.770;2022-07-23T00:37:38;101843.13;;;13.83;50.36
45040;BME280;30778;53.574;7.770;2022-07-23T00:40:04;101843.00;;;13.86;50.16
45040;BME280;30778;53.574;7.770;2022-07-23T00:42:31;101839.25;;;13.70;50.45
45040;BME280;30778;53.574;7.770;2022-07-23T00:44:56;101843.34;;;13.77;50.42
45040;BME280;30778;53.574;7.770;2022-07-23T00:47:22;101841.19;;;13.88;50.20
45040;BME280;30778;53.574;7.770;2022-07-23T00:49:47;101842.69;;;13.94;50.47
45040;BME280;30778;53.574;7.770;2022-07-23T00:52:13;101846.25;;;13.93;50.21
45040;BME280;30778;53.574;7.770;2022-07-23T00:54:39;101840.59;;;14.04;49.83
45040;BME280;30778;53.574;7.770;2022-07-23T00:57:04;101829.44;;;13.97;49.98
45040;BME280;30778;53.574;7.770;2022-07-23T00:59:30;101834.75;;;13.96;49.58
45040;BME280;30778;53.574;7.770;2022-07-23T01:01:56;101840.38;;;13.86;50.14
45040;BME280;30778;53.574;7.770;2022-07-23T01:04:22;101842.06;;;13.87;50.26
45040;BME280;30778;53.574;7.770;2022-07-23T01:06:47;101835.91;;;13.88;49.91
45040;BME280;30778;53.574;7.770;2022-07-23T01:09:13;101836.66;;;13.92;50.00
45040;BME280;30778;53.574;7.770;2022-07-23T01:11:40;101836.72;;;13.90;50.38
45040;BME280;30778;53.574;7.770;2022-07-23T01:14:12;101833.91;;;13.48;51.35
45040;BME280;30778;53.574;7.770;2022-07-23T01:16:41;101835.78;;;13.44;51.92
45040;BME280;30778;53.574;7.770;2022-07-23T01:19:08;101829.06;;;13.37;52.24
45040;BME280;30778;53.574;7.770;2022-07-23T01:21:42;101822.56;;;13.47;51.98
45040;BME280;30778;53.574;7.770;2022-07-23T01:24:09;101820.47;;;13.57;52.16
45040;BME280;30778;53.574;7.770;2022-07-23T01:26:38;101818.34;;;13.67;51.78
45040;BME280;30778;53.574;7.770;2022-07-23T01:29:04;101820.06;;;13.68;51.84
45040;BME280;30778;53.574;7.770;2022-07-23T01:31:31;101828.13;;;13.38;52.04
45040;BME280;30778;53.574;7.770;2022-07-23T01:33:57;101822.31;;;13.53;51.95
45040;BME280;30778;53.574;7.770;2022-07-23T01:36:23;101824.03;;;13.31;52.37
45040;BME280;30778;53.574;7.770;2022-07-23T01:38:49;101820.06;;;13.43;51.81
45040;BME280;30778;53.574;7.770;2022-07-23T01:41:15;101824.47;;;13.42;51.97
45040;BME280;30778;53.574;7.770;2022-07-23T01:43:41;101822.78;;;13.41;52.22
45040;BME280;30778;53.574;7.770;2022-07-23T01:46:07;101820.84;;;13.46;51.65
45040;BME280;30778;53.574;7.770;2022-07-23T01:48:38;101825.97;;;13.26;52.13
45040;BME280;30778;53.574;7.770;2022-07-23T01:51:23;101825.97;;;13.26;52.08
45040;BME280;30778;53.574;7.770;2022-07-23T01:54:10;101820.97;;;13.18;52.08
45040;BME280;30778;53.574;7.770;2022-07-23T01:56:35;101818.63;;;13.10;52.79
45040;BME280;30778;53.574;7.770;2022-07-23T01:59:01;101825.72;;;12.83;53.08
45040;BME280;30778;53.574;7.770;2022-07-23T02:01:27;101812.59;;;13.08;52.38
45040;BME280;30778;53.574;7.770;2022-07-23T02:03:52;101822.31;;;12.80;52.98
45040;BME280;30778;53.574;7.770;2022-07-23T02:06:18;101820.03;;;12.96;53.01
45040;BME280;30778;53.574;7.770;2022-07-23T02:08:43;101812.25;;;13.18;52.85
45040;BME280;30778;53.574;7.770;2022-07-23T02:11:09;101806.09;;;13.19;52.40
45040;BME280;30778;53.574;7.770;2022-07-23T02:13:34;101804.50;;;13.15;52.70
45040;BME280;30778;53.574;7.770;2022-07-23T02:16:00;101812.38;;;13.15;52.39
45040;BME280;30778;53.574;7.770;2022-07-23T02:18:26;101813.75;;;13.25;52.63
45040;BME280;30778;53.574;7.770;2022-07-23T02:20:51;101802.34;;;13.26;52.60
45040;BME280;30778;53.574;7.770;2022-07-23T02:23:17;101796.28;;;13.24;52.34
45040;BME280;30778;53.574;7.770;2022-07-23T02:25:42;101797.31;;;13.20;52.45
45040;BME280;30778;53.574;7.770;2022-07-23T02:28:09;101799.59;;;13.29;52.29
45040;BME280;30778;53.574;7.770;2022-07-23T02:30:34;101792.50;;;13.31;52.38
45040;BME280;30778;53.574;7.770;2022-07-23T02:33:00;101794.16;;;13.33;52.02
45040;BME280;30778;53.574;7.770;2022-07-23T02:35:26;101793.31;;;13.33;52.03
45040;BME280;30778;53.574;7.770;2022-07-23T02:37:51;101800.31;;;13.34;51.82
45040;BME280;30778;53.574;7.770;2022-07-23T02:40:18;101789.16;;;13.27;52.21
45040;BME280;30778;53.574;7.770;2022-07-23T02:42:44;101786.47;;;13.29;52.09
45040;BME280;30778;53.574;7.770;2022-07-23T02:45:10;101785.84;;;13.22;52.74
45040;BME280;30778;53.574;7.770;2022-07-23T02:47:35;101780.19;;;13.09;52.63
45040;BME280;30778;53.574;7.770;2022-07-23T02:50:01;101778.03;;;13.21;52.67
45040;BME280;30778;53.574;7.770;2022-07-23T02:52:31;101778.28;;;13.13;52.37
45040;BME280;30778;53.574;7.770;2022-07-23T02:54:56;101776.47;;;12.92;52.90
45040;BME280;30778;53.574;7.770;2022-07-23T02:57:24;101780.03;;;12.89;53.40
45040;BME280;30778;53.574;7.770;2022-07-23T02:59:49;101775.91;;;12.82;53.57
45040;BME280;30778;53.574;7.770;2022-07-23T03:02:17;101782.28;;;12.75;53.77
45040;BME280;30778;53.574;7.770;2022-07-23T03:04:42;101786.72;;;12.73;54.20
45040;BME280;30778;53.574;7.770;2022-07-23T03:07:10;101791.66;;;12.82;54.18
45040;BME280;30778;53.574;7.770;2022-07-23T03:09:36;101795.72;;;12.90;54.31
45040;BME280;30778;53.574;7.770;2022-07-23T03:12:02;101780.41;;;13.03;54.06
45040;BME280;30778;53.574;7.770;2022-07-23T03:14:28;101786.97;;;13.15;53.80
45040;BME280;30778;53.574;7.770;2022-07-23T03:16:55;101782.91;;;13.06;53.07
45040;BME280;30778;53.574;7.770;2022-07-23T03:19:21;101784.34;;;13.15;53.91
45040;BME280;30778;53.574;7.770;2022-07-23T03:21:46;101783.16;;;13.24;53.55
45040;BME280;30778;53.574;7.770;2022-07-23T03:24:12;101782.03;;;13.07;53.91
45040;BME280;30778;53.574;7.770;2022-07-23T03:26:37;101790.69;;;13.09;53.99
45040;BME280;30778;53.574;7.770;2022-07-23T03:29:03;101795.59;;;13.19;53.82
45040;BME280;30778;53.574;7.770;2022-07-23T03:31:30;101797.31;;;13.20;53.73
45040;BME280;30778;53.574;7.770;2022-07-23T03:33:57;101796.56;;;13.16;53.49
45040;BME280;30778;53.574;7.770;2022-07-23T03:36:22;101795.94;;;13.09;53.80
45040;BME280;30778;53.574;7.770;2022-07-23T03:38:50;101795.94;;;13.09;53.65
45040;BME280;30778;53.574;7.770;2022-07-23T03:41:16;101786.94;;;13.17;53.62
45040;BME280;30778;53.574;7.770;2022-07-23T03:43:43;101782.06;;;13.06;53.60
45040;BME280;30778;53.574;7.770;2022-07-23T03:46:10;101782.03;;;13.07;53.47
45040;BME280;30778;53.574;7.770;2022-07-23T03:48:36;101770.94;;;12.99;53.79
45040;BME280;30778;53.574;7.770;2022-07-23T03:51:01;101775.50;;;12.94;53.64
45040;BME280;30778;53.574;7.770;2022-07-23T03:53:27;101768.03;;;12.82;53.92
45040;BME280;30778;53.574;7.770;2022-07-23T03:55:52;101776.19;;;12.74;54.33
45040;BME280;30778;53.574;7.770;2022-07-23T03:58:18;101777.41;;;12.89;54.40
45040;BME280;30778;53.574;7.770;2022-07-23T04:00:43;101774.63;;;12.94;54.38
45040;BME280;30778;53.574;7.770;2022-07-23T04:03:09;101783.00;;;13.05;54.21
45040;BME280;30778;53.574;7.770;2022-07-23T04:05:37;101776.78;;;13.07;53.50
45040;BME280;30778;53.574;7.770;2022-07-23T04:08:07;101782.03;;;13.07;53.99
45040;BME280;30778;53.574;7.770;2022-07-23T04:10:37;101776.44;;;13.17;53.85
45040;BME280;30778;53.574;7.770;2022-07-23T04:13:05;101780.06;;;13.13;54.04
45040;BME280;30778;53.574;7.770;2022-07-23T04:15:31;101781.69;;;13.17;53.99
45040;BME280;30778;53.574;7.770;2022-07-23T04:17:57;101779.72;;;13.22;53.85
45040;BME280;30778;53.574;7.770;2022-07-23T04:20:28;101783.34;;;13.19;53.60
45040;BME280;30778;53.574;7.770;2022-07-23T04:22:57;101782.31;;;13.23;53.58
45040;BME280;30778;53.574;7.770;2022-07-23T04:25:23;101774.34;;;13.25;53.53
45040;BME280;30778;53.574;7.770;2022-07-23T04:27:49;101779.56;;;13.03;53.51
45040;BME280;30778;53.574;7.770;2022-07-23T04:30:14;101784.34;;;13.15;53.80
45040;BME280;30778;53.574;7.770;2022-07-23T04:32:40;101780.41;;;13.27;53.81
45040;BME280;30778;53.574;7.770;2022-07-23T04:35:13;101783.28;;;13.21;54.20
45040;BME280;30778;53.574;7.770;2022-07-23T04:37:39;101777.28;;;13.41;54.02
45040;BME280;30778;53.574;7.770;2022-07-23T04:40:04;101772.66;;;13.47;53.40
45040;BME280;30778;53.574;7.770;2022-07-23T04:42:30;101783.28;;;13.68;53.60
45040;BME280;30778;53.574;7.770;2022-07-23T04:44:55;101775.16;;;13.74;52.57
45040;BME280;30778;53.574;7.770;2022-07-23T04:47:21;101781.16;;;13.78;52.58
45040;BME280;30778;53.574;7.770;2022-07-23T04:49:47;101774.63;;;13.88;52.47
45040;BME280;30778;53.574;7.770;2022-07-23T04:52:12;101780.25;;;13.79;52.77
45040;BME280;30778;53.574;7.770;2022-07-23T04:54:39;101787.81;;;13.86;52.48
45040;BME280;30778;53.574;7.770;2022-07-23T04:57:04;101789.03;;;14.00;52.68
45040;BME280;30778;53.574;7.770;2022-07-23T04:59:29;101790.63;;;14.04;51.81
45040;BME280;30778;53.574;7.770;2022-07-23T05:01:59;101791.72;;;14.20;50.78
45040;BME280;30778;53.574;7.770;2022-07-23T05:04:25;101790.69;;;14.24;51.50
45040;BME280;30778;53.574;7.770;2022-07-23T05:06:50;101791.31;;;14.09;51.51
45040;BME280;30778;53.574;7.770;2022-07-23T05:09:16;101795.00;;;14.25;51.71
45040;BME280;30778;53.574;7.770;2022-07-23T05:11:44;101795.06;;;14.03;51.68
45040;BME280;30778;53.574;7.770;2022-07-23T05:14:10;101789.00;;;14.01;51.34
45040;BME280;30778;53.574;7.770;2022-07-23T05:16:38;101790.63;;;14.26;51.34
45040;BME280;30778;53.574;7.770;2022-07-23T05:19:09;101794.09;;;14.26;51.01
45040;BME280;30778;53.574;7.770;2022-07-23T05:21:35;101796.34;;;14.35;50.45
45040;BME280;30778;53.574;7.770;2022-07-23T05:24:01;101794.50;;;14.60;49.37
45040;BME280;30778;53.574;7.770;2022-07-23T05:26:26;101797.06;;;14.61;49.64
45040;BME280;30778;53.574;7.770;2022-07-23T05:28:52;101801.41;;;14.83;49.54
45040;BME280;30778;53.574;7.770;2022-07-23T05:31:19;101808.63;;;14.98;48.55
45040;BME280;30778;53.574;7.770;2022-07-23T05:33:45;101806.75;;;15.21;47.46
45040;BME280;30778;53.574;7.770;2022-07-23T05:36:12;101810.16;;;15.24;47.51
45040;BME280;30778;53.574;7.770;2022-07-23T05:38:48;101809.53;;;15.57;47.41
45040;BME280;30778;53.574;7.770;2022-07-23T05:41:14;101807.63;;;15.42;46.48
45040;BME280;30778;53.574;7.770;2022-07-23T05:43:39;101808.25;;;14.66;48.23
45040;BME280;30778;53.574;7.770;2022-07-23T05:46:09;101814.53;;;15.03;47.84
45040;BME280;30778;53.574;7.770;2022-07-23T05:48:37;101813.22;;;15.13;47.68
45040;BME280;30778;53.574;7.770;2022-07-23T05:51:08;101812.00;;;15.02;48.28
45040;BME280;30778;53.574;7.770;2022-07-23T05:53:34;101809.84;;;14.91;47.49
45040;BME280;30778;53.574;7.770;2022-07-23T05:56:04;101817.56;;;15.35;46.83
45040;BME280;30778;53.574;7.770;2022-07-23T05:58:31;101809.41;;;15.60;46.89
45040;BME280;30778;53.574;7.770;2022-07-23T06:00:56;101812.44;;;15.70;47.71
45040;BME280;30778;53.574;7.770;2022-07-23T06:03:23;101818.31;;;15.57;46.71
45040;BME280;30778;53.574;7.770;2022-07-23T06:05:49;101824.97;;;15.46;46.41
45040;BME280;30778;53.574;7.770;2022-07-23T06:08:16;101822.72;;;15.76;46.05
45040;BME280;30778;53.574;7.770;2022-07-23T06:10:42;101822.22;;;15.87;45.14
45040;BME280;30778;53.574;7.770;2022-07-23T06:13:08;101829.03;;;16.10;45.53
45040;BME280;30778;53.574;7.770;2022-07-23T06:15:33;101823.22;;;15.84;45.04
45040;BME280;30778;53.574;7.770;2022-07-23T06:17:59;101821.47;;;15.83;45.71
45040;BME280;30778;53.574;7.770;2022-07-23T06:20:24;101829.19;;;16.07;45.03
45040;BME280;30778;53.574;7.770;2022-07-23T06:22:50;101826.19;;;15.95;45.73
45040;BME280;30778;53.574;7.770;2022-07-23T06:25:16;101820.78;;;15.79;44.39
45040;BME280;30778;53.574;7.770;2022-07-23T06:27:43;101828.75;;;15.40;46.04
45040;BME280;30778;53.574;7.770;2022-07-23T06:30:11;101822.88;;;15.73;45.75
45040;BME280;30778;53.574;7.770;2022-07-23T06:32:37;101833.09;;;15.79;44.84
45040;BME280;30778;53.574;7.770;2022-07-23T06:35:02;101829.56;;;15.80;44.54
45040;BME280;30778;53.574;7.770;2022-07-23T06:37:28;101815.81;;;15.73;45.42
45040;BME280;30778;53.574;7.770;2022-07-23T06:39:53;101833.03;;;15.99;45.01
45040;BME280;30778;53.574;7.770;2022-07-23T06:42:19;101830.44;;;16.17;43.83
45040;BME280;30778;53.574;7.770;2022-07-23T06:44:48;101833.88;;;15.81;44.93
45040;BME280;30778;53.574;7.770;2022-07-23T06:47:16;101832.47;;;15.74;44.73
45040;BME280;30778;53.574;7.770;2022-07-23T06:49:41;101839.03;;;15.84;44.95
45040;BME280;30778;53.574;7.770;2022-07-23T06:52:07;101837.78;;;16.10;44.80
45040;BME280;30778;53.574;7.770;2022-07-23T06:54:33;101833.72;;;16.22;43.98
45040;BME280;30778;53.574;7.770;2022-07-23T06:56:58;101833.72;;;16.22;43.00
45040;BME280;30778;53.574;7.770;2022-07-23T06:59:26;101832.81;;;16.40;43.44
45040;BME280;30778;53.574;7.770;2022-07-23T07:01:51;101828.34;;;16.60;43.34
45040;BME280;30778;53.574;7.770;2022-07-23T07:04:17;101829.56;;;17.05;41.91
45040;BME280;30778;53.574;7.770;2022-07-23T07:06:42;101831.78;;;17.13;41.75
45040;BME280;30778;53.574;7.770;2022-07-23T07:09:07;101837.03;;;17.48;41.37
45040;BME280;30778;53.574;7.770;2022-07-23T07:11:33;101836.69;;;16.68;42.69
45040;BME280;30778;53.574;7.770;2022-07-23T07:13:58;101838.13;;;16.75;40.97
45040;BME280;30778;53.574;7.770;2022-07-23T07:16:24;101840.44;;;16.99;41.53
45040;BME280;30778;53.574;7.770;2022-07-23T07:18:49;101838.13;;;16.75;41.30
45040;BME280;30778;53.574;7.770;2022-07-23T07:21:15;101840.66;;;16.59;42.50
45040;BME280;30778;53.574;7.770;2022-07-23T07:23:40;101837.47;;;16.53;41.84
45040;BME280;30778;53.574;7.770;2022-07-23T07:26:06;101854.06;;;16.37;41.59
45040;BME280;30778;53.574;7.770;2022-07-23T07:28:32;101860.22;;;16.73;41.51
45040;BME280;30778;53.574;7.770;2022-07-23T07:30:57;101856.72;;;16.55;41.47
45040;BME280;30778;53.574;7.770;2022-07-23T07:33:23;101856.63;;;16.39;41.72
45040;BME280;30778;53.574;7.770;2022-07-23T07:35:48;101858.97;;;15.90;41.65
45040;BME280;30778;53.574;7.770;2022-07-23T07:38:14;101865.56;;;16.36;40.71
45040;BME280;30778;53.574;7.770;2022-07-23T07:40:39;101869.09;;;16.18;39.54
45040;BME280;30778;53.574;7.770;2022-07-23T07:43:05;101871.78;;;15.59;40.21
45040;BME280;30778;53.574;7.770;2022-07-23T07:45:31;101877.72;;;15.03;41.82
45040;BME280;30778;53.574;7.770;2022-07-23T07:47:56;101883.00;;;14.83;43.77
45040;BME280;30778;53.574;7.770;2022-07-23T07:50:22;101880.41;;;14.81;43.64
45040;BME280;30778;53.574;7.770;2022-07-23T07:52:48;101876.69;;;14.87;44.31
45040;BME280;30778;53.574;7.770;2022-07-23T07:55:13;101885.28;;;15.33;43.94
45040;BME280;30778;53.574;7.770;2022-07-23T07:57:42;101885.03;;;14.96;44.06
45040;BME280;30778;53.574;7.770;2022-07-23T08:00:09;101881.25;;;15.24;43.94
45040;BME280;30778;53.574;7.770;2022-07-23T08:02:45;101881.50;;;15.18;43.44
45040;BME280;30778;53.574;7.770;2022-07-23T08:05:12;101890.28;;;15.77;42.76
45040;BME280;30778;53.574;7.770;2022-07-23T08:07:38;101889.31;;;15.98;41.40
45040;BME280;30778;53.574;7.770;2022-07-23T08:10:08;101891.19;;;16.15;41.75
45040;BME280;30778;53.574;7.770;2022-07-23T08:12:41;101887.97;;;16.81;41.19
45040;BME280;30778;53.574;7.770;2022-07-23T08:15:08;101885.16;;;17.19;40.43
45040;BME280;30778;53.574;7.770;2022-07-23T08:17:34;101885.09;;;17.03;39.94
45040;BME280;30778;53.574;7.770;2022-07-23T08:20:00;101893.44;;;16.96;40.30
45040;BME280;30778;53.574;7.770;2022-07-23T08:25:12;101896.84;;;16.80;40.40
45040;BME280;30778;53.574;7.770;2022-07-23T08:27:38;101891.75;;;16.58;39.20
45040;BME280;30778;53.574;7.770;2022-07-23T08:30:04;101901.41;;;16.40;40.34
45040;BME280;30778;53.574;7.770;2022-07-23T08:32:29;101899.34;;;16.28;39.98
45040;BME280;30778;53.574;7.770;2022-07-23T08:34:55;101904.44;;;17.21;38.85
45040;BME280;30778;53.574;7.770;2022-07-23T08:37:20;101894.56;;;17.92;36.60
45040;BME280;30778;53.574;7.770;2022-07-23T08:39:46;101898.88;;;18.56;37.25
45040;BME280;30778;53.574;7.770;2022-07-23T08:42:13;101894.50;;;19.16;35.38
45040;BME280;30778;53.574;7.770;2022-07-23T08:44:42;101897.19;;;19.44;33.80
45040;BME280;30778;53.574;7.770;2022-07-23T08:47:11;101903.84;;;18.93;34.74
45040;BME280;30778;53.574;7.770;2022-07-23T08:49:37;101902.84;;;18.79;34.79
45040;BME280;30778;53.574;7.770;2022-07-23T08:52:04;101897.16;;;18.55;35.24
45040;BME280;30778;53.574;7.770;2022-07-23T08:54:31;101902.50;;;18.69;34.58
45040;BME280;30778;53.574;7.770;2022-07-23T08:56:56;101893.41;;;18.89;35.08
45040;BME280;30778;53.574;7.770;2022-07-23T08:59:22;101893.94;;;18.80;35.65
45040;BME280;30778;53.574;7.770;2022-07-23T09:01:47;101900.34;;;18.46;35.33
45040;BME280;30778;53.574;7.770;2022-07-23T09:04:13;101890.53;;;18.78;34.77
45040;BME280;30778;53.574;7.770;2022-07-23T09:06:39;101896.34;;;18.69;35.63
45040;BME280;30778;53.574;7.770;2022-07-23T09:09:18;101896.97;;;18.28;35.20
45040;BME280;30778;53.574;7.770;2022-07-23T09:12:03;101900.78;;;17.91;37.13
45040;BME280;30778;53.574;7.770;2022-07-23T09:14:39;101902.94;;;17.67;36.82
45040;BME280;30778;53.574;7.770;2022-07-23T09:17:17;101913.09;;;16.35;38.16
45040;BME280;30778;53.574;7.770;2022-07-23T09:19:44;101914.16;;;16.50;38.75
45040;BME280;30778;53.574;7.770;2022-07-23T09:22:21;101907.25;;;16.83;38.09
45040;BME280;30778;53.574;7.770;2022-07-23T09:25:22;101909.09;;;16.99;38.50
45040;BME280;30778;53.574;7.770;2022-07-23T09:27:51;101901.19;;;17.16;37.50
45040;BME280;30778;53.574;7.770;2022-07-23T09:30:19;101914.94;;;16.52;38.76
45040;BME280;30778;53.574;7.770;2022-07-23T09:33:03;101913.81;;;16.38;39.18
45040;BME280;30778;53.574;7.770;2022-07-23T09:38:11;101911.69;;;16.47;39.20
45040;BME280;30778;53.574;7.770;2022-07-23T09:40:36;101910.53;;;16.70;38.30
45040;BME280;30778;53.574;7.770;2022-07-23T09:43:02;101911.25;;;16.37;39.05
45040;BME280;30778;53.574;7.770;2022-07-23T09:45:27;101904.09;;;16.58;38.79
45040;BME280;30778;53.574;7.770;2022-07-23T09:48:10;101910.31;;;17.27;38.38
45040;BME280;30778;53.574;7.770;2022-07-23T09:50:36;101914.06;;;17.22;37.93
45040;BME280;30778;53.574;7.770;2022-07-23T09:53:02;101908.78;;;17.89;36.75
45040;BME280;30778;53.574;7.770;2022-07-23T09:55:34;101904.19;;;18.40;36.59
45040;BME280;30778;53.574;7.770;2022-07-23T09:58:07;101911.06;;;19.05;34.91
45040;BME280;30778;53.574;7.770;2022-07-23T10:00:39;101906.56;;;19.21;33.56
45040;BME280;30778;53.574;7.770;2022-07-23T10:03:06;101912.06;;;19.61;33.37
45040;BME280;30778;53.574;7.770;2022-07-23T10:05:41;101902.81;;;20.24;31.79
45040;BME280;30778;53.574;7.770;2022-07-23T10:08:28;101902.75;;;19.97;32.13
45040;BME280;30778;53.574;7.770;2022-07-23T10:11:19;101918.69;;;19.97;31.68
45040;BME280;30778;53.574;7.770;2022-07-23T10:14:03;101911.91;;;20.06;31.61
45040;BME280;30778;53.574;7.770;2022-07-23T10:16:51;101921.84;;;19.02;34.12
45040;BME280;30778;53.574;7.770;2022-07-23T10:19:17;101921.34;;;18.01;36.15
45040;BME280;30778;53.574;7.770;2022-07-23T10:21:49;101924.06;;;18.16;36.08
45040;BME280;30778;53.574;7.770;2022-07-23T10:30:05;101925.34;;;17.93;36.25
45040;BME280;30778;53.574;7.770;2022-07-23T10:36:07;101931.44;;;18.42;35.39
45040;BME280;30778;53.574;7.770;2022-07-23T10:38:46;101931.19;;;18.77;34.43
45040;BME280;30778;53.574;7.770;2022-07-23T10:41:13;101922.31;;;18.78;34.75
45040;BME280;30778;53.574;7.770;2022-07-23T10:43:38;101915.50;;;18.58;35.15
45040;BME280;30778;53.574;7.770;2022-07-23T10:46:24;101924.28;;;18.91;34.92
45040;BME280;30778;53.574;7.770;2022-07-23T10:49:28;101930.34;;;19.07;34.89
45040;BME280;30778;53.574;7.770;2022-07-23T10:57:19;101941.69;;;18.95;34.67
45040;BME280;30778;53.574;7.770;2022-07-23T11:02:31;101940.06;;;19.37;34.66
45040;BME280;30778;53.574;7.770;2022-07-23T11:05:05;101937.94;;;19.13;35.41
45040;BME280;30778;53.574;7.770;2022-07-23T11:07:31;101941.00;;;19.21;35.03
45040;BME280;30778;53.574;7.770;2022-07-23T11:09:58;101945.28;;;18.94;35.29
45040;BME280;30778;53.574;7.770;2022-07-23T11:15:14;101944.03;;;18.69;35.24
45040;BME280;30778;53.574;7.770;2022-07-23T11:25:08;101941.44;;;20.83;31.56
45040;BME280;30778;53.574;7.770;2022-07-23T11:27:44;101939.81;;;22.34;30.33
45040;BME280;30778;53.574;7.770;2022-07-23T11:35:30;101945.16;;;21.20;31.19
45040;BME280;30778;53.574;7.770;2022-07-23T11:38:06;101946.63;;;20.71;30.79
45040;BME280;30778;53.574;7.770;2022-07-23T11:40:32;101951.97;;;20.30;31.30
45040;BME280;30778;53.574;7.770;2022-07-23T11:43:01;101954.94;;;19.39;33.03
45040;BME280;30778;53.574;7.770;2022-07-23T11:45:38;101956.97;;;19.64;32.55
45040;BME280;30778;53.574;7.770;2022-07-23T11:48:05;101944.03;;;20.16;31.60
45040;BME280;30778;53.574;7.770;2022-07-23T11:50:31;101942.16;;;20.03;31.06
45040;BME280;30778;53.574;7.770;2022-07-23T11:52:57;101944.56;;;19.65;32.20
45040;BME280;30778;53.574;7.770;2022-07-23T11:55:23;101949.97;;;19.78;32.86
45040;BME280;30778;53.574;7.770;2022-07-23T11:57:50;101952.06;;;19.73;32.00
45040;BME280;30778;53.574;7.770;2022-07-23T12:00:20;101952.28;;;20.11;31.61
45040;BME280;30778;53.574;7.770;2022-07-23T12:02:50;101952.22;;;19.98;31.54
45040;BME280;30778;53.574;7.770;2022-07-23T12:05:24;101965.34;;;18.98;33.30
45040;BME280;30778;53.574;7.770;2022-07-23T12:07:51;101951.06;;;19.30;33.28
45040;BME280;30778;53.574;7.770;2022-07-23T12:13:33;101946.38;;;20.62;32.65
45040;BME280;30778;53.574;7.770;2022-07-23T12:15:46;101952.97;;;19.86;32.23
45040;BME280;30778;53.574;7.770;2022-07-23T12:18:16;101958.75;;;19.78;33.05
45040;BME280;30778;53.574;7.770;2022-07-23T12:20:46;101951.38;;;19.83;33.32
45040;BME280;30778;53.574;7.770;2022-07-23T12:23:15;101959.66;;;20.62;32.14
45040;BME280;30778;53.574;7.770;2022-07-23T12:25:42;101960.38;;;19.81;31.58
45040;BME280;30778;53.574;7.770;2022-07-23T12:28:15;101955.75;;;19.25;32.86
45040;BME280;30778;53.574;7.770;2022-07-23T12:30:47;101954.81;;;19.26;32.84
45040;BME280;30778;53.574;7.770;2022-07-23T12:33:24;101955.63;;;20.00;32.27
45040;BME280;30778;53.574;7.770;2022-07-23T12:35:52;101956.50;;;21.09;30.19
45040;BME280;30778;53.574;7.770;2022-07-23T12:38:19;101954.09;;;21.32;29.40
45040;BME280;30778;53.574;7.770;2022-07-23T12:40:50;101963.31;;;21.90;29.50
45040;BME280;30778;53.574;7.770;2022-07-23T12:45:51;101964.38;;;21.24;29.45
45040;BME280;30778;53.574;7.770;2022-07-23T12:48:23;101968.38;;;21.69;29.42
45040;BME280;30778;53.574;7.770;2022-07-23T12:50:51;101965.81;;;21.68;28.76
45040;BME280;30778;53.574;7.770;2022-07-23T12:55:47;101962.69;;;20.83;30.72
45040;BME280;30778;53.574;7.770;2022-07-23T12:58:17;101971.50;;;20.83;31.37
45040;BME280;30778;53.574;7.770;2022-07-23T13:01:04;101969.03;;;20.40;32.00
45040;BME280;30778;53.574;7.770;2022-07-23T13:03:33;101967.75;;;20.46;31.79
45040;BME280;30778;53.574;7.770;2022-07-23T13:06:01;101972.59;;;19.98;32.15
45040;BME280;30778;53.574;7.770;2022-07-23T13:08:29;101965.44;;;20.81;31.56
45040;BME280;30778;53.574;7.770;2022-07-23T13:10:56;101965.47;;;21.72;30.22
45040;BME280;30778;53.574;7.770;2022-07-23T13:13:24;101960.06;;;21.61;29.88
45040;BME280;30778;53.574;7.770;2022-07-23T13:15:50;101968.69;;;20.18;31.64
45040;BME280;30778;53.574;7.770;2022-07-23T13:18:16;101972.66;;;19.53;32.95
45040;BME280;30778;53.574;7.770;2022-07-23T13:20:43;101975.66;;;20.47;31.56
45040;BME280;30778;53.574;7.770;2022-07-23T13:23:09;101974.81;;;21.14;31.21
45040;BME280;30778;53.574;7.770;2022-07-23T13:25:34;101967.16;;;21.09;30.20
45040;BME280;30778;53.574;7.770;2022-07-23T13:28:00;101974.69;;;20.76;31.92
45040;BME280;30778;53.574;7.770;2022-07-23T13:30:26;101980.13;;;20.32;32.54
45040;BME280;30778;53.574;7.770;2022-07-23T13:32:52;101968.69;;;20.18;32.02
45040;BME280;30778;53.574;7.770;2022-07-23T13:35:18;101967.78;;;21.13;30.92
45040;BME280;30778;53.574;7.770;2022-07-23T13:37:43;101977.22;;;20.77;30.66
45040;BME280;30778;53.574;7.770;2022-07-23T13:40:10;101971.03;;;20.08;31.96
45040;BME280;30778;53.574;7.770;2022-07-23T13:42:36;101973.81;;;19.92;31.98